Station info - map view · info · telemetry · weather · raw · status · beacons · messages · bulletins · browse · moving · my account
Callsign, ship name or locator: Clear       
It is possible to search using wildcards (*?) after a prefix. Example: OH*
APRS station IZ1PKI-9 - show graphs
Map loading...
Comment: Op.Alessandro FT1XD
Mic-E message: In service
Location: 44°25.56' N 8°55.51' E - locator JN44LK12AF - show map - static map
1.1 miles Northeast bearing 43° from San Teodoro, Province of Genoa, Liguria, Italy [?]
1.4 miles North bearing 342° from Genova, Province of Genoa, Liguria, Italy
72.8 miles South bearing 190° from Milan, Province of Milan, Lombardy, Italy
75.3 miles Southeast bearing 126° from Torino, Provincia di Torino, Piedmont, Italy
Last position: 2018-09-08 07:21:16 EDT (11d 15h54m ago)
2018-09-08 13:21:16 CEST local time at San Teodoro, Italy [?]
Altitude: 436 ft
Course: 299°
Device: Yaesu: FT1D (ht)
Last path: IZ1PKI-9>T4RUU6 via IR1AX-11,IZ1REU-11,WIDE2*,qAR,IR1CH (good)
Positions stored: 2838
Other SSIDs: IZ1PKI IZ1PKI-7
Stations near current position of IZ1PKI-9 - show more
callsign distance last heard - EDT      callsign distance last heard - EDT
IZ1PKI25.4 yards 324°2018-09-19 23:13:54 IZ1OYP-9327.4 yards 352°2018-09-18 01:50:40
IZ1MLT-10.7 miles 315°2018-09-14 17:40:50 IZ1MLT-R0.7 miles 315°2018-09-19 23:12:53
IZ1MLT-R00.7 miles 315°2018-08-28 09:01:23 IZ1MLT-H10.7 miles 315°2018-09-19 23:01:38
IZ1REU-70.8 miles 204°2018-09-08 01:58:19 iz1uhc1.4 miles 107°2018-09-05 14:13:47
IW1PUK-ND1.5 miles 274°2018-09-19 16:12:14 IZ2OXC-91.5 miles 270°2018-08-26 08:49:53
EL-IW1EYZ1.7 miles 106°2018-09-19 23:15:55 IW1EYZ1.7 miles 106°2018-09-19 15:05:34
IZ1GJK-91.9 miles 332°2018-09-09 10:42:51 IR1UHN B1.9 miles 332°2018-09-19 19:06:37
IR1UHN-B1.9 miles 332°2018-09-19 19:06:47 IR1UHN-H01.9 miles 332°2018-09-19 19:03:13
IZ1POV2.1 miles 129°2018-09-16 06:29:10 IU4DAK-12.3 miles 98°2018-08-24 13:41:21
IZ1REU2.5 miles 131°2018-09-19 23:16:00 IW1PUK2.5 miles 256°2018-09-06 05:42:21
Stations which heard IZ1PKI-9 directly on radio –
callsign pkts first heard - EDT last heard longest (tx => rx) longest at - EDT
IR3BT 33 2018-09-01 04:00:50 2018-09-01 09:20:53 JN56UT > JN56MD 56.8 miles 215° 2018-09-01 04:00:50
IR3AS 2 2018-09-01 07:33:32 2018-09-01 07:34:36 JN56NC > JN56QB 11.4 miles 103° 2018-09-01 07:33:32
IK3XTM 2 2018-09-01 08:44:43 2018-09-01 08:51:15 JN55JN > JN55LP 8.3 miles 59° 2018-09-01 08:51:15
IN3XSV 1 2018-09-01 07:35:24 2018-09-01 07:35:24 JN56NC > JN55PX 10.4 miles 130° 2018-09-01 07:35:24
IN3RSV 1 2018-09-01 07:53:21 2018-09-01 07:53:21 JN55NW > JN55NV 2.9 miles 123° 2018-09-01 07:53:21
IR1AX-11 6 2018-09-01 11:39:49 2018-09-08 07:21:16 JN44LN > JN44KL 5.8 miles 223° 2018-09-01 11:39:49
IZ3LBC 1 2018-09-01 08:44:41 2018-09-01 08:44:41 JN55KO > JN55KL 10.0 miles 176° 2018-09-01 08:44:41
IR2BZ 12 2018-09-01 09:26:54 2018-09-01 10:29:52 JN45TB > JN45XO 39.9 miles 26° 2018-09-01 10:29:52
IR2Y 3 2018-09-01 09:26:54 2018-09-01 09:50:39 JN55CL > JN55EK 8.5 miles 113° 2018-09-01 09:45:28
IR3DQ 2 2018-09-01 06:08:37 2018-09-01 06:21:22 JN56QL > JN56NQ 16.1 miles 323° 2018-09-01 06:08:37
IW2GOB-2 1 2018-09-01 10:38:55 2018-09-01 10:38:55 JN45QC > JN45SH 16.1 miles 24° 2018-09-01 10:38:55
IW1EYZ 2 2018-09-01 12:04:29 2018-09-01 12:10:56 JN44KJ > JN44LK 2.5 miles 79° 2018-09-01 12:04:29
IR1DM 3 2018-09-01 11:03:12 2018-09-01 11:15:24 JN44KW > JN44JS 12.5 miles 200° 2018-09-01 11:03:12
IR2S 15 2018-09-01 09:29:55 2018-09-01 10:35:54 JN45RB > JN55DQ 56.7 miles 43° 2018-09-01 10:35:54
IR2CW 1 2018-09-01 10:54:08 2018-09-01 10:54:08 JN45MA > JN45NE 11.7 miles 26° 2018-09-01 10:54:08
IR2CV 1 2018-09-01 08:44:40 2018-09-01 08:44:40 JN55KO > JN55JC 37.4 miles 187° 2018-09-01 08:44:40
IR2BW 3 2018-09-01 09:29:55 2018-09-01 09:47:06 JN55EL > JN55DN 8.0 miles 330° 2018-09-01 09:29:55
OE7XGR-10 2 2018-09-01 05:05:08 2018-09-01 05:09:14 JN56TQ > JN57UB 26.0 miles 5° 2018-09-01 05:09:14
IR1UGE 1 2018-09-08 07:18:11 2018-09-08 07:18:11 JN44LK > JN33WX 60.8 miles 240° 2018-09-08 07:18:11
IR2UFW 1 2018-09-01 10:54:08 2018-09-01 10:54:08 JN45MA > JN45LI 24.3 miles 355° 2018-09-01 10:54:08
IZ1XBB-1 1 2018-09-01 11:03:13 2018-09-01 11:03:13 JN44KW > JN44KV 2.7 miles 184° 2018-09-01 11:03:13
IU2GOH 7 2018-09-01 09:35:57 2018-09-01 09:50:39 JN55CM > JN55BL 5.7 miles 245° 2018-09-01 09:35:57
IR2UEZ 1 2018-09-01 11:27:27 2018-09-01 11:27:27 JN44LP > JN45JP 68.3 miles 353° 2018-09-01 11:27:27
OE7XGR 1 2018-09-01 05:05:09 2018-09-01 05:05:09 JN56TQ > JN57UB 25.6 miles 4° 2018-09-01 05:05:09
IQ3VO 13 2018-09-01 08:19:54 2018-09-01 10:20:49 JN45VB > JN55MQ 75.6 miles 53° 2018-09-01 10:20:49
IR3AO 6 2018-09-01 02:42:07 2018-09-01 03:19:28 JN56WP > JN56WK 15.6 miles 188° 2018-09-01 03:19:28
IZ1REU-11 1 2018-09-01 12:04:30 2018-09-01 12:04:30 JN44KJ > JN44MJ 6.1 miles 92° 2018-09-01 12:04:30
IR2DQ 4 2018-09-01 09:59:42 2018-09-01 10:11:46 JN55BG > JN55AD 9.8 miles 218° 2018-09-01 09:59:42
IR1BY 1 2018-09-01 12:01:27 2018-09-01 12:01:27 JN44KK > JN44EH 28.9 miles 255° 2018-09-01 12:01:27
IW2GOB-12 1 2018-09-01 10:38:56 2018-09-01 10:38:56 JN45QC > JN45SH 16.1 miles 24° 2018-09-01 10:38:56
IZ1HIQ-10 1 2018-09-01 12:05:45 2018-09-01 12:05:45 JN44KJ > JN44LK 4.3 miles 50° 2018-09-01 12:05:45

Only position packets which were originated by the station are shown here. The range statistics show some extra long hops, because some digipeaters do not correctly add themselves to the digipeater path. Please check the raw packets.
About this site
This page shows real-time information collected from the Automatic Position Reporting System Internet network (APRS-IS). APRS is used by amateur (ham) radio operators to transmit real-time position information, weather data, telemetry and messages over the radio. A vehicle equipped with a GPS receiver, a VHF transmitter or HF transceiver and a small computer device called a tracker transmits it's location, speed and course in a small data packet, which is then received by a nearby iGate receiving site which forwards the packet on the Internet. Systems connected to the Internet can send information on the APRS-IS without a radio transmitter, or collect and display information transmitted anywhere in the world.
FAQ · Blog · Discussion group · Linking to aprs.fi · AIS sites · Service status · Database statistics · Advertising on aprs.fi · Technical details · API · Change log · Planned changes · Credits and thanks · Terms Of Service · iPhone/iPad APRS